Aérodrome :
LOGIN :

S'inscrire | Disclaimer

   EN    FR    IT 

 










Légende :    VFR   VFR Marginal   IFR   IFR Intensif   IFR Très Intensif
Visi : 
Plafond : 
>= 8 km
>= 3000ft
5 à 8 km
1000 à 3000 ft
1500m à 5 km
500 à 1000 ft
800 à 1500m
200 à 500 ft
< 800m
< 200 ft
Symboles :   Orages  Brouillard  Fortes neiges  Fortes précipitations  Vent > 20 kt
SIGMETs :   Divers  Orages  Givrage  Turbulence  Onde Orograph.  Cendres Volcan.







- Altitude de l'aérodrome : 512 ft
- Code IATA : URO
- Voir les cartes d'approche


LFOP - Rouen Vallée de Seine

DERNIER METAR :
  • 181930Z AUTO 16012KT CAVOK 07/03 Q1007 TEMPO 2000 DZRA OVC003

METARs EXPIRÉS :
  • 181900Z AUTO 17013KT 9999 FEW044 SCT080 OVC130 07/03 Q1008 TEMPO 15015G25KT 2000 DZRA OVC003
  • 181830Z AUTO 16016KT CAVOK 07/03 Q1008 TEMPO 15015G25KT 2000 DZRA OVC003
  • 181800Z AUTO 16016KT CAVOK 07/03 Q1008 TEMPO 15015G25KT
  • 181730Z AUTO 15016KT CAVOK 07/03 Q1008 TEMPO 15015G25KT
  • 181700Z AUTO 15017KT CAVOK 07/03 Q1009 TEMPO 15015G25KT
  • 181630Z AUTO 15017KT CAVOK 07/03 Q1009 TEMPO 15015G25KT

TAF TAF LFOP
Valide du 18 à 18h jusqu'au 19 à 18h UTC


181700Z 1818/1918 15013KT CAVOK
TEMPO 1818/1820 15015G25KT
FM182000 20015KT 4000 RA OVC013
TEMPO 1820/1824 2000 DZRA OVC003
BECMG 1900/1902 9999 NSW
PROB40
TEMPO 1904/1908 4000 SHRA BKN013CB
BECMG 1908/1911 BKN016
ATIS : +33 2 35 80 80 34
Météo : +33 2 32 86 52 80
Pas de NOTAMs connus pour ce terrain.



MET'MAP, la Météo Aéronautique d'un coup d'oeil ! - Copyright ORBIFLY Décembre 2007 - Disclaimer

ORBIFLY MET'MAP TEAM :

Programmation & Développement : Alexandra Zaïnal
Conception & Développement : Baudouin d'Aumeries
Co-Programmation & Développement : Marc-Olivier Méhu
Soutien technique & logistique : Manuel Goepfert

Contact : metmap@orbifly.com




SOURCES & CREDITS :

   NOAA